Latest Weather Observations for Giles*

IDD60801

Issued at 2:35 pm CST Saturday 1 November 2014 (issued every 30 minutes, with the page automatically refreshed every 10 minutes)

About weather observations | Map of weather stations | Latest weather observations for NT | Other Formats
Station Details ID: 013017 Name: GILES METEOROLOGICAL OFFICE Lat: -25.03 Lon: 128.30 Height: 598.0 m
Data from the previous 72 hours. | See also: Recent months at Giles*

* Giles observations are collected in the South Australia time zone, which includes daylight saving in the summer period. Therefore, Rain since 9am value is with respect to South Australia local time.

Date/Time
CST
Temp
°C
App
Temp
°C
Dew
Point
Rel
Hum
%
Delta-T
°C
Wind Press
QNH
hPa
Press
MSL
hPa
Rain
since 9 am
mm
Dir
 
Spd
km/h
Gust
km/h
Spd
kts
Gust
kts
01/02:30pm 31.4 28.7 8.9 24 12.9 SSE 13 28 7 15 1013.7 - 0.0
01/02:00pm 30.9 28.3 9.2 26 12.5 SE 13 24 7 13 1014.3 1010.2 0.0
01/01:30pm 30.7 26.9 9.1 26 12.4 ENE 19 26 10 14 1014.6 - 0.0
01/01:00pm 30.5 27.0 8.7 25 12.4 ESE 17 30 9 16 1015.1 - 0.0
01/12:30pm 29.0 25.0 9.2 29 11.3 ESE 20 35 11 19 1015.4 - 0.0
01/12:00pm 28.0 24.7 9.4 31 10.6 SE 17 28 9 15 1015.8 - 0.0
01/11:30am 26.8 22.5 9.5 33 9.8 SE 22 33 12 18 1016.3 - 0.0
01/11:00am 26.8 22.2 9.5 33 9.8 SE 24 35 13 19 1016.7 1012.7 0.0
01/10:30am 25.6 20.6 9.4 36 9.1 SE 26 35 14 19 1016.8 - 0.0
01/10:00am 23.8 18.7 9.2 39 8.1 SE 26 37 14 20 1017.1 - 0.0
01/09:30am 22.4 17.3 9.1 42 7.3 SE 26 37 14 20 1017.4 - 0.0
01/09:00am 21.4 15.8 8.9 44 6.8 ESE 28 39 15 21 1017.5 - 0.0
01/08:30am 20.3 14.3 8.8 47 6.2 SE 30 39 16 21 1017.5 - 0.0
01/08:00am 19.2 12.7 8.8 51 5.6 SE 33 46 18 25 1016.8 1012.8 0.4
01/07:30am 18.6 12.2 8.7 52 5.3 SE 32 44 17 24 1016.6 - 0.4
01/07:13am 17.9 12.3 8.7 55 4.9 SE 28 46 15 25 1016.4 - 0.4
01/07:00am 18.0 13.3 9.3 56 4.7 SE 24 39 13 21 1016.6 - 0.4
01/06:30am 17.4 12.4 9.4 59 4.3 SE 26 43 14 23 1015.8 - 0.4
01/06:19am 17.5 12.0 9.3 58 4.4 SE 28 46 15 25 1015.8 - 0.4
01/06:00am 17.7 13.5 9.8 60 4.3 ESE 22 32 12 17 1015.3 - 0.4
01/05:30am 18.0 13.5 10.2 60 4.3 SE 24 32 13 17 1014.6 - 0.4
01/05:00am 18.4 13.3 10.6 60 4.3 SSE 28 43 15 23 1014.6 1010.5 0.4
01/04:30am 19.4 14.0 12.1 62 4.2 SE 32 46 17 25 1014.0 - 0.4
01/04:16am 19.9 15.4 12.5 62 4.3 SE 28 46 15 25 1014.0 - 0.4
01/04:00am 20.2 15.8 12.8 62 4.3 SSE 28 43 15 23 1013.6 - 0.4
01/03:46am 20.4 15.8 13.4 64 4.1 SSE 30 48 16 26 1013.3 - 0.4
01/03:30am 20.8 16.7 13.7 64 4.2 SSE 28 37 15 20 1013.5 - 0.4
01/03:19am 21.0 16.9 13.8 63 4.3 SSE 28 46 15 25 1013.3 - 0.4
01/03:00am 21.4 17.4 14.0 62 4.4 SSE 28 39 15 21 1013.3 - 0.4
01/02:55am 21.6 17.6 14.1 62 4.5 SSE 28 46 15 25 1013.3 - 0.4
01/02:30am 22.3 18.3 14.1 59 4.9 SSE 28 41 15 22 1013.1 - 0.4
01/02:09am 22.8 18.8 14.2 58 5.2 SSE 28 48 15 26 1013.0 - 0.4
01/02:00am 22.8 19.3 14.4 59 5.1 SSE 26 39 14 21 1012.9 1008.8 0.4
01/01:30am 23.3 20.5 14.4 57 5.4 SSE 22 32 12 17 1012.7 - 0.4
01/01:00am 23.9 20.2 13.9 53 6.0 SSE 26 41 14 22 1013.0 - 0.4
01/12:30am 24.7 19.3 12.7 47 7.1 SSE 33 46 18 25 1012.9 - 0.4
01/12:24am 24.9 18.7 12.6 46 7.3 SSE 37 46 20 25 1012.8 - 0.4
01/12:00am 25.8 22.5 11.6 41 8.3 SSW 20 33 11 18 1012.7 - 0.4
 
Date/Time
CST
Temp
°C
App
Temp
°C
Dew
Point
Rel
Hum
%
Delta-T
°C
Wind Press
QNH
hPa
Press
MSL
hPa
Rain
since 9 am
mm
Dir
 
Spd
km/h
Gust
km/h
Spd
kts
Gust
kts
31/11:30pm 25.5 23.3 12.1 43 7.9 S 15 24 8 13 1012.3 - 0.4
31/11:00pm 26.2 25.7 12.6 43 8.1 NNW 7 11 4 6 1011.7 1007.6 0.4
31/10:30pm 26.9 23.7 12.0 39 8.8 N 20 28 11 15 1011.7 - 0.4
31/10:00pm 26.5 25.0 13.0 43 8.1 N 13 26 7 14 1011.8 - 0.4
31/09:30pm 26.0 25.4 15.6 52 6.5 NNE 13 19 7 10 1011.8 - 0.4
31/09:00pm 25.7 26.4 18.0 62 5.0 NE 11 17 6 9 1011.9 - 0.2
31/08:30pm 29.2 27.2 11.5 33 10.5 E 13 19 7 10 1010.4 - 0.0
31/08:00pm 30.8 29.7 11.8 31 11.4 ENE 9 13 5 7 1009.9 1006.5 0.0
31/07:51pm 30.9 29.5 11.0 29 11.8 ENE 9 15 5 8 1009.8 - 0.0
31/07:30pm 32.3 29.9 7.2 21 14.1 NE 9 15 5 8 1009.6 - 0.0
31/07:26pm 32.0 30.4 8.9 24 13.3 ESE 7 15 4 8 1009.4 - 0.0
31/07:00pm 35.6 30.1 1.6 12 17.8 W 20 30 11 16 1008.6 - 0.0
31/06:30pm 36.2 30.8 2.3 12 18.0 W 20 32 11 17 1007.6 - 0.0
31/06:00pm 36.2 30.8 2.7 12 17.9 WNW 20 33 11 18 1007.2 - 0.0
31/05:30pm 36.7 30.5 2.4 11 18.2 W 24 32 13 17 1007.2 - 0.0
31/05:00pm 37.0 31.2 2.4 11 18.5 NW 22 33 12 18 1007.2 1003.7 0.0
31/04:30pm 36.3 30.6 2.6 12 17.9 W 22 33 12 18 1007.3 - 0.0
31/04:00pm 36.2 30.0 1.9 11 18.1 W 24 33 13 18 1007.8 - 0.0
31/03:30pm 36.6 30.0 2.1 11 18.3 NW 26 41 14 22 1008.2 - 0.0
31/03:00pm 36.0 29.2 3.0 12 17.7 NW 28 41 15 22 1008.7 - 0.0
31/02:30pm 36.0 30.1 3.7 13 17.5 NW 24 41 13 22 1009.3 - 0.0
31/02:00pm 34.2 29.1 6.0 17 15.7 NW 22 28 12 15 1009.9 1006.5 0.0
31/01:30pm 32.5 27.3 9.0 23 13.6 NNW 26 46 14 25 1010.5 - 0.0
31/01:01pm 33.6 26.7 6.3 18 15.2 NNW 32 50 17 27 1010.9 - 0.0
31/01:00pm 33.6 26.4 6.0 18 15.3 N 33 50 18 27 1010.8 - 0.0
31/12:42pm 33.7 27.6 6.8 19 15.1 N 28 46 15 25 1011.1 - 0.0
31/12:30pm 34.4 27.3 6.4 17 15.7 NNW 33 43 18 23 1011.3 - 0.0
31/12:27pm 34.9 28.1 6.7 17 15.9 NNW 32 41 17 22 1011.3 - 0.0
31/12:00pm 34.6 26.7 6.1 17 15.9 N 37 44 20 24 1011.4 - 0.0
31/11:30am 32.9 27.3 8.8 22 13.9 NNW 28 39 15 21 1012.1 - 0.0
31/11:00am 32.9 26.2 8.0 21 14.2 N 33 44 18 24 1012.2 1008.7 0.0
31/10:30am 31.3 25.8 10.6 28 12.2 N 30 37 16 20 1012.4 - 0.0
31/10:00am 29.0 22.6 10.7 32 10.7 N 35 43 19 23 1012.3 - 0.0
31/09:30am 27.9 21.1 10.5 33 10.1 N 37 56 20 30 1012.1 - 0.0
31/09:03am 27.3 20.4 10.3 34 9.8 N 37 56 20 30 1012.2 - 0.0
31/09:00am 27.8 21.0 10.6 34 10.0 N 37 52 20 28 1012.1 - 0.0
31/08:30am 26.0 20.1 11.0 39 8.7 N 33 48 18 26 1012.3 - 0.0
31/08:00am 25.4 19.3 10.6 39 8.5 N 33 48 18 26 1012.7 1009.3 0.0
31/07:30am 25.2 21.9 10.8 40 8.3 NE 19 41 10 22 1011.3 - 0.0
31/07:10am 25.5 20.2 10.0 37 8.8 NNE 28 46 15 25 1011.8 - 0.0
31/07:00am 24.0 22.4 11.6 45 7.2 ENE 11 13 6 7 1012.2 - 0.0
31/06:30am 23.4 21.5 11.9 48 6.7 E 13 19 7 10 1011.9 - 0.0
31/06:00am 23.3 20.7 12.0 49 6.6 ESE 17 20 9 11 1011.3 - 0.0
31/05:30am 25.2 22.1 10.3 39 8.5 ENE 17 32 9 17 1011.2 - 0.0
31/05:00am 24.8 22.3 10.9 41 8.0 ENE 15 20 8 11 1010.1 1006.7 0.0
31/04:30am 23.6 20.7 12.4 49 6.6 ENE 19 28 10 15 1010.4 - 0.0
31/04:00am 26.4 21.6 8.7 32 9.9 N 24 33 13 18 1011.9 - 0.0
31/03:30am 27.3 22.0 7.0 27 11.1 NNE 24 41 13 22 1009.7 - 0.0
31/03:00am 27.9 22.6 6.9 26 11.5 NNE 24 33 13 18 1009.5 - 0.0
31/02:30am 26.4 21.1 9.7 35 9.5 E 28 39 15 21 1009.2 - 0.0
31/02:00am 27.1 24.5 7.7 29 10.7 N 11 17 6 9 1011.1 1007.7 0.0
31/01:30am 26.1 22.7 9.0 34 9.6 NNE 17 22 9 12 1010.6 - 0.0
31/01:00am 25.8 22.1 9.5 35 9.2 NE 19 26 10 14 1010.8 - 0.0
31/12:30am 25.9 22.1 9.2 34 9.4 E 19 24 10 13 1011.6 - 0.0
31/12:00am 26.2 22.7 8.9 33 9.7 E 17 22 9 12 1012.3 - 0.0
 
Date/Time
CST
Temp
°C
App
Temp
°C
Dew
Point
Rel
Hum
%
Delta-T
°C
Wind Press
QNH
hPa
Press
MSL
hPa
Rain
since 9 am
mm
Dir
 
Spd
km/h
Gust
km/h
Spd
kts
Gust
kts
30/11:30pm 27.1 22.0 7.7 29 10.7 SE 24 35 13 19 1012.2 - 0.0
30/11:00pm 27.9 22.5 2.7 19 12.8 SSE 20 30 11 16 1012.6 1009.2 0.0
30/10:45pm 26.9 19.9 1.7 19 12.5 SSE 28 35 15 19 1012.4 - 0.0
30/10:30pm 27.0 24.1 4.6 23 11.7 N 9 13 5 7 1011.8 - 0.0
30/10:00pm 26.9 25.6 4.1 23 11.8 CALM 0 0 0 0 1011.7 - 0.0
30/09:30pm 27.7 25.6 3.7 21 12.4 NW 4 9 2 5 1011.5 - 0.0
30/09:00pm 28.1 25.4 2.8 19 12.9 NE 6 11 3 6 1011.3 - 0.0
30/08:30pm 29.2 25.8 1.6 17 13.9 N 9 13 5 7 1011.0 - 0.0
30/08:00pm 29.7 25.1 1.6 16 14.2 NNE 15 19 8 10 1010.5 1007.0 0.0
30/07:30pm 30.5 25.6 1.9 16 14.6 NE 17 24 9 13 1010.5 - 0.0
30/07:00pm 30.8 27.1 2.5 16 14.6 NE 11 15 6 8 1010.8 - 0.0
30/06:30pm 31.5 26.5 1.5 14 15.3 N 17 30 9 16 1010.6 - 0.0
30/06:00pm 32.8 25.8 -0.2 12 16.5 N 26 33 14 18 1010.1 - 0.0
30/05:30pm 33.2 26.6 -0.1 12 16.7 N 24 35 13 19 1010.5 - 0.0
30/05:00pm 32.7 26.2 0.4 12 16.3 N 24 35 13 19 1010.5 1007.0 0.0
30/04:30pm 32.9 26.0 0.0 12 16.5 N 26 35 14 19 1010.6 - 0.0
30/04:00pm 32.8 24.8 0.6 13 16.3 NNE 32 41 17 22 1010.8 - 0.0
30/03:30pm 34.6 26.6 0.2 11 17.5 NNE 32 44 17 24 1011.0 - 0.0
30/03:00pm 34.8 27.5 -0.2 11 17.7 NNE 28 35 15 19 1011.3 - 0.0
30/02:30pm 34.5 28.0 0.3 11 17.4 NNE 24 33 13 18 1011.5 - 0.0
30/02:00pm 33.7 28.1 1.2 12 16.7 NE 20 35 11 19 1012.1 1008.6 0.0
30/01:30pm 33.3 27.7 1.0 13 16.5 NE 20 33 11 18 1012.4 - 0.0
30/01:00pm 34.2 27.7 0.3 11 17.2 NNE 24 39 13 21 1012.8 - 0.0
30/12:30pm 33.1 25.9 0.9 13 16.4 ENE 28 41 15 22 1013.1 - 0.0
30/12:00pm 32.4 24.4 1.6 14 15.8 ENE 33 44 18 24 1013.7 - 0.0
30/11:30am 30.9 23.6 4.7 19 14.0 E 32 44 17 24 1014.6 - 0.0
30/11:00am 29.2 23.3 7.3 25 12.1 E 28 37 15 20 1015.3 1011.9 0.0
30/10:30am 28.4 23.3 7.6 27 11.5 ESE 24 35 13 19 1016.2 - 0.0
30/10:00am 28.0 22.5 7.5 27 11.3 E 26 37 14 20 1016.4 - 0.0
30/09:30am 27.8 21.6 7.7 28 11.1 SE 30 41 16 22 1017.0 - 0.0
30/09:00am 27.4 21.3 8.1 29 10.7 SE 30 41 16 22 1017.1 - 0.0
30/08:30am 25.6 21.1 8.7 34 9.4 SSE 22 32 12 17 1017.5 - 0.0
30/08:00am 25.1 22.2 9.7 37 8.7 ESE 15 20 8 11 1017.0 1013.7 0.0
30/07:30am 24.4 22.9 10.5 41 7.9 ENE 9 15 5 8 1016.8 - 0.0
30/07:00am 24.6 20.9 9.4 38 8.5 ESE 19 26 10 14 1015.5 - 0.0
30/06:30am 26.2 22.4 5.9 27 10.8 ESE 15 20 8 11 1016.0 - 0.0
30/06:00am 26.3 22.0 5.1 25 11.1 E 17 24 9 13 1015.7 - 0.0
30/05:30am 25.9 21.8 6.2 28 10.5 SE 17 22 9 12 1015.4 - 0.0
30/05:00am 27.1 23.9 2.8 21 12.3 SSE 9 11 5 6 1015.0 1011.6 0.0
30/04:30am 27.4 22.0 1.3 18 12.9 ESE 19 26 10 14 1013.9 - 0.0
30/04:00am 27.6 21.7 1.4 18 13.0 ESE 22 30 12 16 1013.9 - 0.0
30/03:30am 27.8 21.4 1.0 17 13.2 ESE 24 33 13 18 1013.9 - 0.0
30/03:00am 28.0 22.4 1.5 18 13.2 ESE 20 26 11 14 1013.9 - 0.0
30/02:30am 28.2 22.2 0.8 17 13.5 ESE 22 28 12 15 1014.0 - 0.0
30/02:00am 28.2 21.7 0.4 16 13.6 SE 24 33 13 18 1013.9 1010.4 0.0
30/01:30am 28.7 21.6 -0.9 14 14.2 SSE 26 35 14 19 1014.4 - 0.0
30/01:00am 29.5 24.3 -0.2 14 14.5 S 17 20 9 11 1015.3 - 0.0
30/12:30am 29.9 24.1 -0.1 14 14.7 ESE 20 30 11 16 1014.8 - 0.0
30/12:00am 30.0 23.7 1.4 16 14.4 SE 24 32 13 17 1014.5 - 0.0
 
Date/Time
CST
Temp
°C
App
Temp
°C
Dew
Point
Rel
Hum
%
Delta-T
°C
Wind Press
QNH
hPa
Press
MSL
hPa
Rain
since 9 am
mm
Dir
 
Spd
km/h
Gust
km/h
Spd
kts
Gust
kts
29/11:30pm 30.1 25.0 3.1 18 14.0 ESE 19 24 10 13 1014.9 - 0.0
29/11:00pm 30.2 24.6 3.3 18 14.0 ESE 22 30 12 16 1015.0 1011.6 0.0
29/10:30pm 30.1 22.6 3.4 18 13.9 SE 32 43 17 23 1015.2 - 0.0
29/10:14pm 30.2 23.1 3.3 18 14.0 SE 30 48 16 26 1015.3 - 0.0
29/10:00pm 30.9 25.7 3.7 18 14.3 ESE 20 30 11 16 1015.5 - 0.0
29/09:30pm 31.2 24.5 3.6 17 14.5 ESE 28 39 15 21 1015.7 - 0.0
29/09:19pm 31.4 24.6 3.0 16 14.8 SE 28 43 15 23 1015.8 - 0.0
29/09:00pm 31.0 27.5 3.6 17 14.4 ESE 11 15 6 8 1016.0 - 0.0
29/08:30pm 31.8 27.7 2.4 15 15.2 SW 13 19 7 10 1016.8 - 0.0
29/08:07pm 32.1 23.6 1.2 14 15.7 SSW 35 46 19 25 1016.4 - 0.0
29/08:00pm 32.0 27.1 1.7 14 15.5 SSW 17 24 9 13 1016.2 1012.8 0.0
29/07:30pm 33.2 29.0 1.5 13 16.3 WSW 13 20 7 11 1015.4 - 0.0
29/07:00pm 33.7 28.9 0.3 12 16.9 WSW 15 20 8 11 1014.9 - 0.0
29/06:30pm 34.2 29.4 -0.1 11 17.3 WSW 15 24 8 13 1014.7 - 0.0
29/06:00pm 34.8 29.5 -0.3 11 17.7 W 17 20 9 11 1014.5 - 0.0
29/05:30pm 35.0 30.1 -0.6 10 17.9 WNW 15 20 8 11 1014.3 - 0.0
29/05:00pm 35.5 30.6 -0.6 10 18.2 NW 15 24 8 13 1014.0 1010.6 0.0
29/04:30pm 35.7 30.0 -1.0 9 18.4 NW 19 30 10 16 1014.0 - 0.0
29/04:00pm 35.8 30.1 -1.1 9 18.5 NW 19 28 10 15 1014.0 - 0.0
29/03:30pm 36.0 30.1 -0.6 10 18.5 NW 20 30 11 16 1014.1 - 0.0
29/03:00pm 36.2 30.3 -0.9 9 18.7 NNW 20 30 11 16 1014.2 - 0.0
29/02:30pm 35.4 29.1 -0.9 10 18.2 NW 22 33 12 18 1014.5 - 0.0
29/02:00pm 36.9 30.9 -1.3 9 19.2 NNW 20 30 11 16 1014.8 1011.4 0.0

Other Formats:

Comma delimited format used in spreadsheet applications
http://www.bom.gov.au/fwo/IDD60801/IDD60801.94461.axf

JavaScript Object Notation format (JSON) in row-major order
http://www.bom.gov.au/fwo/IDD60801/IDD60801.94461.json